gordon.dewis.ca - Random musings from Gordon

Subscribe

Incoming warmish damp weather on Monday

November 23, 2014 @ 22:12 By: gordon Category: Weather

TAF CYOW 240238Z 2403/2424 09008KT P6SM SCT015 OVC050
FM240800 12010KT P6SM OVC030 TEMPO 2408/2410 5SM -RA BR OVC020
FM241000 10015KT 2SM -RA BR OVC005 TEMPO 2410/2415 1SM RA BR
PROB40 2410/2415 OVC003
FM241600 17015G30KT 4SM -RA BR OVC010
BECMG 2421/2423 22020G35KT
RMK NXT FCST BY 240600Z=

Translation:

Rain in early morn

Increasing winds after noon

Swirling gusts at dusk

 

Leave a Reply

CAPTCHA
*